Pepeekeo, Hawaii
Current Conditions -  °F | °C
As of 6:53 AM on Thursday 18 Dec 2014 (Local Time) from PHTO Reporting Station
Broken Clouds Broken Clouds  
Wind Chill: 68°   Ceiling: 6000
Heat Index: 68°   Visibility: 10mi
Dew Point: 65°   Wind: 6mph
Humidity: 90%   Direction: 240°WSW
Pressure: 30.17"   Gusts: NA
Location:  19.84°N, 155.09°W
Report Text: PHTO 181653Z 24005KT 10SM SCT024 SCT045 BKN060 20/18 A3017 RMK AO2 SLP214 VCSH N T02000183 $
Loading
Personal Weather Stations






























Interactive Weather Map New forecast layout! Learn more

10-Day Weather Forecast

Advertisements
Track Severe Weather on mobile